Time;durP1;ratioP1;P1;durP2;ratioP2;P2;SDS_P1;SDS_P2;PMS_P1;PMS_P2;Temp;Humidity;BMP_temperature;BMP_pressure;BME280_temperature;BME280_humidity;BME280_pressure;Samples;Min_cycle;Max_cycle;Signal;HPM_P1;HPM_P2
2021/11/26 00:02:14;;;;;;;;;;;24.00;37.50;;;;;;5099289;28;20294;-84
2021/11/26 00:04:42;;;;;;;;;;;24.00;37.50;;;;;;5098119;28;19908;-83
2021/11/26 00:07:10;;;;;;;;;;;24.00;37.50;;;;;;5115038;28;19922;-79
2021/11/26 00:09:38;;;;;;;;;;;24.00;37.50;;;;;;5097959;28;19915;-82
2021/11/26 00:12:08;;;;;;;;;;;24.00;37.60;;;;;;5114764;28;19912;-85
2021/11/26 00:14:44;;;;;;;;;;;24.10;37.80;;;;;;5098297;28;19919;-80
2021/11/26 00:17:17;;;;;;;;;;;24.10;38.00;;;;;;5099450;28;19907;-79
2021/11/26 00:19:45;;;;;;;;;;;24.10;38.10;;;;;;5115123;28;19912;-83
2021/11/26 00:22:10;;;;;;;;;;;24.10;38.10;;;;;;5098501;28;19912;-85
2021/11/26 00:24:38;;;;;;;;;;;24.10;38.10;;;;;;5115173;28;19938;-84
2021/11/26 00:27:04;;;;;;;;;;;24.10;38.10;;;;;;5115030;28;19935;-82
2021/11/26 00:29:30;;;;;;;;;;;24.10;38.00;;;;;;5098191;28;19919;-83
2021/11/26 00:31:55;;;;;;;;;;;24.10;38.00;;;;;;5097879;28;20320;-82
2021/11/26 00:34:21;;;;;;;;;;;24.10;38.10;;;;;;5115009;28;20001;-82
2021/11/26 00:36:48;;;;;;;;;;;24.10;38.20;;;;;;5097847;28;20375;-82
2021/11/26 00:39:14;;;;;;;;;;;24.10;38.10;;;;;;5114750;28;20285;-81
2021/11/26 00:41:39;;;;;;;;;;;24.10;38.10;;;;;;5097858;28;20339;-81
2021/11/26 00:44:05;;;;;;;;;;;24.10;38.10;;;;;;5114635;28;20260;-80
2021/11/26 00:46:32;;;;;;;;;;;24.10;38.00;;;;;;5114755;28;19923;-81
2021/11/26 00:48:58;;;;;;;;;;;24.20;38.10;;;;;;5114661;28;20368;-82
2021/11/26 00:51:26;;;;;;;;;;;24.10;37.90;;;;;;5114432;28;20006;-81
2021/11/26 00:53:52;;;;;;;;;;;24.20;38.00;;;;;;5114731;28;20000;-82
2021/11/26 00:56:17;;;;;;;;;;;24.20;38.00;;;;;;5097956;28;20355;-85
2021/11/26 00:58:45;;;;;;;;;;;24.20;38.00;;;;;;5114875;28;20406;-81
2021/11/26 01:01:11;;;;;;;;;;;24.20;37.90;;;;;;5115049;28;19915;-81
2021/11/26 01:03:36;;;;;;;;;;;24.20;37.90;;;;;;5114403;28;19965;-80
2021/11/26 01:06:02;;;;;;;;;;;24.20;37.90;;;;;;5097780;28;20398;-84
2021/11/26 01:08:27;;;;;;;;;;;24.20;37.90;;;;;;5097743;28;19915;-82
2021/11/26 01:10:55;;;;;;;;;;;24.20;37.90;;;;;;5097634;28;19923;-81
2021/11/26 01:13:20;;;;;;;;;;;24.20;37.90;;;;;;5114578;28;19915;-82
2021/11/26 01:15:48;;;;;;;;;;;24.20;37.80;;;;;;5114585;28;20006;-84
2021/11/26 01:18:18;;;;;;;;;;;24.20;37.80;;;;;;5098890;28;19908;-84
2021/11/26 01:20:43;;;;;;;;;;;24.20;37.80;;;;;;5118195;28;19920;-82
2021/11/26 01:23:09;;;;;;;;;;;24.20;37.80;;;;;;5118560;28;19919;-83
2021/11/26 01:25:34;;;;;;;;;;;24.20;37.80;;;;;;5118372;28;19908;-82
2021/11/26 01:28:02;;;;;;;;;;;24.30;37.90;;;;;;5100891;28;20334;-82
2021/11/26 01:30:33;;;;;;;;;;;24.30;37.80;;;;;;5118372;28;19935;-83
2021/11/26 01:33:01;;;;;;;;;;;24.30;37.80;;;;;;5101762;28;19912;-81
2021/11/26 01:35:29;;;;;;;;;;;24.30;37.80;;;;;;5101107;28;19933;-81
2021/11/26 01:37:57;;;;;;;;;;;24.30;37.80;;;;;;5101323;28;19931;-83
2021/11/26 01:40:22;;;;;;;;;;;24.30;37.80;;;;;;5118297;28;19908;-81
2021/11/26 01:42:49;;;;;;;;;;;24.30;37.80;;;;;;5100809;28;19912;-85
2021/11/26 01:45:19;;;;;;;;;;;24.30;37.80;;;;;;5100799;28;19908;-81
2021/11/26 01:47:44;;;;;;;;;;;24.30;37.80;;;;;;5101254;28;20006;-83
2021/11/26 01:50:13;;;;;;;;;;;24.30;37.80;;;;;;5117947;28;19974;-80
2021/11/26 01:52:43;;;;;;;;;;;24.30;37.80;;;;;;5117898;28;19915;-81
2021/11/26 01:55:09;;;;;;;;;;;24.30;37.80;;;;;;5101130;28;19908;-85
2021/11/26 01:57:35;;;;;;;;;;;24.30;37.80;;;;;;5118458;28;20347;-83
2021/11/26 02:00:03;;;;;;;;;;;24.30;37.80;;;;;;5118429;28;20341;-81
2021/11/26 02:02:28;;;;;;;;;;;24.30;37.80;;;;;;5117538;28;19912;-81
2021/11/26 02:04:56;;;;;;;;;;;24.30;37.80;;;;;;5100456;28;20006;-80
2021/11/26 02:07:22;;;;;;;;;;;24.30;37.80;;;;;;5100926;28;19908;-85
2021/11/26 02:09:48;;;;;;;;;;;24.30;37.80;;;;;;5117511;28;20378;-82
2021/11/26 02:12:13;;;;;;;;;;;24.30;37.80;;;;;;5100440;28;19912;-81
2021/11/26 02:14:41;;;;;;;;;;;24.30;37.80;;;;;;5117355;28;20336;-82
2021/11/26 02:17:09;;;;;;;;;;;24.30;37.80;;;;;;5100345;28;19977;-83
2021/11/26 02:19:35;;;;;;;;;;;24.30;37.80;;;;;;5100704;28;20267;-81
2021/11/26 02:22:00;;;;;;;;;;;24.40;38.40;;;;;;5100611;28;20325;-81
2021/11/26 02:24:26;;;;;;;;;;;24.30;37.80;;;;;;5117371;28;19919;-81
2021/11/26 02:26:52;;;;;;;;;;;24.30;37.80;;;;;;5118324;28;19908;-80
2021/11/26 02:29:21;;;;;;;;;;;24.30;37.80;;;;;;5119798;28;19908;-80
2021/11/26 02:31:49;;;;;;;;;;;24.30;38.40;;;;;;5103484;28;19912;-81
2021/11/26 02:34:18;;;;;;;;;;;24.30;37.80;;;;;;5122331;28;20281;-79
2021/11/26 02:36:43;;;;;;;;;;;24.30;37.80;;;;;;5119194;28;19930;-79
2021/11/26 02:39:14;;;;;;;;;;;24.30;37.80;;;;;;5116958;28;20395;-83
2021/11/26 02:41:42;;;;;;;;;;;24.30;37.80;;;;;;5117523;28;19916;-83
2021/11/26 02:44:08;;;;;;;;;;;24.40;37.90;;;;;;5116780;28;19912;-83
2021/11/26 02:46:36;;;;;;;;;;;24.30;37.80;;;;;;5099478;28;19976;-80
2021/11/26 02:49:06;;;;;;;;;;;24.30;37.80;;;;;;5099655;28;19933;-81
2021/11/26 02:51:32;;;;;;;;;;;24.40;37.90;;;;;;5116479;28;19948;-82
2021/11/26 02:53:57;;;;;;;;;;;24.40;37.90;;;;;;5116472;28;19918;-83
2021/11/26 02:56:23;;;;;;;;;;;24.40;37.90;;;;;;5099548;28;19907;-83
2021/11/26 02:58:51;;;;;;;;;;;24.30;37.80;;;;;;5116562;28;19912;-84
2021/11/26 03:01:19;;;;;;;;;;;24.40;37.90;;;;;;5116605;28;20324;-83
2021/11/26 03:03:44;;;;;;;;;;;24.40;37.90;;;;;;5099495;28;19908;-82
2021/11/26 03:06:10;;;;;;;;;;;24.30;37.90;;;;;;5099650;28;20011;-82
2021/11/26 03:08:35;;;;;;;;;;;24.40;37.90;;;;;;5099231;28;19908;-83
2021/11/26 03:11:01;;;;;;;;;;;24.40;37.90;;;;;;5116992;28;20360;-84
2021/11/26 03:13:27;;;;;;;;;;;24.40;37.90;;;;;;5116354;28;19919;-78
2021/11/26 03:15:52;;;;;;;;;;;24.40;37.90;;;;;;5099190;28;19912;-83
2021/11/26 03:18:19;;;;;;;;;;;24.40;37.90;;;;;;5116101;28;19991;-87
2021/11/26 03:20:48;;;;;;;;;;;24.40;37.90;;;;;;5099182;28;19915;-85
2021/11/26 03:23:16;;;;;;;;;;;24.40;37.90;;;;;;5098877;28;19930;-83
2021/11/26 03:25:44;;;;;;;;;;;24.40;37.90;;;;;;5099501;28;20328;-82
2021/11/26 03:28:13;;;;;;;;;;;24.40;37.90;;;;;;5115976;28;19907;-82
2021/11/26 03:30:38;;;;;;;;;;;24.40;37.90;;;;;;5098933;28;19969;-81
2021/11/26 03:33:04;;;;;;;;;;;24.40;37.80;;;;;;5115807;28;19915;-81
2021/11/26 03:35:29;;;;;;;;;;;24.40;37.80;;;;;;5100575;28;19943;-81
2021/11/26 03:37:57;;;;;;;;;;;24.40;37.80;;;;;;5103472;28;20007;-82
2021/11/26 03:40:26;;;;;;;;;;;24.40;37.80;;;;;;5116477;28;19907;-84
2021/11/26 03:42:54;;;;;;;;;;;24.40;37.80;;;;;;5098365;28;19920;-83
2021/11/26 03:45:20;;;;;;;;;;;24.40;37.80;;;;;;5099113;28;19908;-81
2021/11/26 03:47:46;;;;;;;;;;;24.40;37.80;;;;;;5098871;28;19918;-82
2021/11/26 03:50:11;;;;;;;;;;;24.40;37.80;;;;;;5098598;28;19908;-85
2021/11/26 03:52:39;;;;;;;;;;;24.40;37.80;;;;;;5098369;28;19945;-80
2021/11/26 03:55:09;;;;;;;;;;;24.40;37.80;;;;;;5115569;28;20324;-82
2021/11/26 03:57:35;;;;;;;;;;;24.40;37.80;;;;;;5115495;28;19919;-79
2021/11/26 04:00:00;;;;;;;;;;;24.40;37.80;;;;;;5115245;28;19908;-81
2021/11/26 04:02:26;;;;;;;;;;;24.40;37.80;;;;;;5098301;28;19908;-81
2021/11/26 04:04:54;;;;;;;;;;;24.40;37.80;;;;;;5098254;28;19970;-84
2021/11/26 04:07:24;;;;;;;;;;;24.40;37.80;;;;;;5098555;28;19915;-84
2021/11/26 04:09:50;;;;;;;;;;;24.40;37.80;;;;;;5116079;28;19943;-83
2021/11/26 04:12:17;;;;;;;;;;;24.40;37.90;;;;;;5098108;28;20338;-83
2021/11/26 04:14:53;;;;;;;;;;;24.40;37.90;;;;;;5098558;28;19915;-84
2021/11/26 04:17:19;;;;;;;;;;;24.40;37.80;;;;;;5099278;28;19911;-83
2021/11/26 04:19:44;;;;;;;;;;;24.40;38.40;;;;;;5115391;28;19907;-85
2021/11/26 04:22:15;;;;;;;;;;;24.40;37.80;;;;;;5115048;28;20366;-82
2021/11/26 04:24:40;;;;;;;;;;;24.40;37.90;;;;;;5114966;28;19912;-81
2021/11/26 04:27:08;;;;;;;;;;;24.40;37.90;;;;;;5099252;28;19919;-80
2021/11/26 04:29:36;;;;;;;;;;;24.40;37.90;;;;;;5101142;28;19919;-79
2021/11/26 04:32:04;;;;;;;;;;;24.40;37.90;;;;;;5099942;28;19923;-82
2021/11/26 04:34:29;;;;;;;;;;;24.40;37.80;;;;;;5116644;28;19907;-82
2021/11/26 04:36:55;;;;;;;;;;;24.50;37.90;;;;;;5115124;28;20324;-82
2021/11/26 04:39:20;;;;;;;;;;;24.50;37.90;;;;;;5115518;28;19908;-82
2021/11/26 04:41:48;;;;;;;;;;;24.40;37.80;;;;;;5114833;28;19919;-83
2021/11/26 04:44:14;;;;;;;;;;;24.40;37.80;;;;;;5114541;28;20068;-81
2021/11/26 04:46:42;;;;;;;;;;;24.50;37.80;;;;;;5097733;28;19955;-81
2021/11/26 04:49:07;;;;;;;;;;;24.50;37.90;;;;;;5097999;28;19927;-81
2021/11/26 04:51:33;;;;;;;;;;;24.40;37.80;;;;;;5097467;28;19911;-82
2021/11/26 04:53:58;;;;;;;;;;;24.50;37.90;;;;;;5117135;28;19912;-81
2021/11/26 04:56:24;;;;;;;;;;;24.50;37.90;;;;;;5101755;28;19969;-83
2021/11/26 04:58:50;;;;;;;;;;;24.50;37.90;;;;;;5101863;28;19911;-79
2021/11/26 05:01:15;;;;;;;;;;;24.50;37.90;;;;;;5101633;28;19908;-80
2021/11/26 05:03:41;;;;;;;;;;;24.40;37.90;;;;;;5118961;28;19934;-83
2021/11/26 05:06:11;;;;;;;;;;;24.50;37.90;;;;;;5101725;28;20373;-83
2021/11/26 05:08:36;;;;;;;;;;;24.50;37.90;;;;;;5118702;28;19908;-81
2021/11/26 05:11:07;;;;;;;;;;;24.50;37.90;;;;;;5101415;28;19923;-82
2021/11/26 05:13:40;;;;;;;;;;;24.50;37.90;;;;;;5101930;28;19907;-85
2021/11/26 05:16:08;;;;;;;;;;;24.50;37.90;;;;;;5118601;28;19919;-84
2021/11/26 05:18:33;;;;;;;;;;;24.50;37.90;;;;;;5101823;28;19908;-83
2021/11/26 05:20:59;;;;;;;;;;;24.50;37.90;;;;;;5102180;28;19907;-81
2021/11/26 05:23:24;;;;;;;;;;;24.50;37.90;;;;;;5119455;28;19933;-83
2021/11/26 05:25:50;;;;;;;;;;;24.50;37.90;;;;;;5103999;28;19918;-83
2021/11/26 05:28:18;;;;;;;;;;;24.50;37.90;;;;;;5103840;28;19912;-82
2021/11/26 05:30:47;;;;;;;;;;;24.50;37.90;;;;;;5102575;28;20002;-82
2021/11/26 05:33:13;;;;;;;;;;;24.50;37.90;;;;;;5101576;28;20006;-81
2021/11/26 05:35:38;;;;;;;;;;;24.50;37.90;;;;;;5101101;28;19950;-82
2021/11/26 05:38:04;;;;;;;;;;;24.50;37.90;;;;;;5118004;28;19931;-81
2021/11/26 05:40:34;;;;;;;;;;;24.50;37.80;;;;;;5118631;28;19908;-84
2021/11/26 05:43:00;;;;;;;;;;;24.50;37.80;;;;;;5101348;28;19908;-82
2021/11/26 05:45:28;;;;;;;;;;;24.50;37.80;;;;;;5101026;28;20010;-85
2021/11/26 05:47:56;;;;;;;;;;;24.50;37.80;;;;;;5117985;28;19908;-79
2021/11/26 05:50:21;;;;;;;;;;;24.50;37.80;;;;;;5117965;28;19908;-81
2021/11/26 05:52:47;;;;;;;;;;;24.50;37.80;;;;;;5118010;28;19922;-82
2021/11/26 05:55:16;;;;;;;;;;;24.50;37.80;;;;;;5118176;28;19908;-84
2021/11/26 05:57:44;;;;;;;;;;;24.50;37.80;;;;;;5118050;28;19918;-85
2021/11/26 06:00:10;;;;;;;;;;;24.50;37.80;;;;;;5101027;28;20012;-79
2021/11/26 06:02:38;;;;;;;;;;;24.50;38.10;;;;;;5100888;28;19999;-86
2021/11/26 06:05:04;;;;;;;;;;;24.50;37.80;;;;;;5117675;28;19908;-84
2021/11/26 06:07:30;;;;;;;;;;;24.50;37.80;;;;;;5118217;28;20385;-82
2021/11/26 06:09:58;;;;;;;;;;;24.50;37.80;;;;;;5100940;28;19908;-82
2021/11/26 06:12:25;;;;;;;;;;;24.50;37.80;;;;;;5117785;28;19923;-84
2021/11/26 06:14:54;;;;;;;;;;;24.50;37.80;;;;;;5118403;28;19915;-85
2021/11/26 06:17:21;;;;;;;;;;;24.50;37.80;;;;;;5117704;28;19916;-83
2021/11/26 06:19:46;;;;;;;;;;;24.50;37.80;;;;;;5117295;28;20248;-87
2021/11/26 06:22:12;;;;;;;;;;;24.50;37.80;;;;;;5100710;28;19908;-82
2021/11/26 06:24:40;;;;;;;;;;;24.50;37.80;;;;;;5100317;28;19908;-85
2021/11/26 06:27:06;;;;;;;;;;;24.50;37.80;;;;;;5117528;28;19951;-81
2021/11/26 06:29:34;;;;;;;;;;;24.50;37.80;;;;;;5101545;28;19996;-84
2021/11/26 06:31:59;;;;;;;;;;;24.50;37.80;;;;;;5121750;28;19923;-82
2021/11/26 06:34:25;;;;;;;;;;;24.50;37.80;;;;;;5103595;28;20272;-79
2021/11/26 06:36:51;;;;;;;;;;;24.50;37.80;;;;;;5104011;28;20240;-83
2021/11/26 06:39:21;;;;;;;;;;;24.50;37.80;;;;;;5118923;28;19919;-80
2021/11/26 06:41:47;;;;;;;;;;;24.50;37.80;;;;;;5117740;28;19914;-81
2021/11/26 06:44:12;;;;;;;;;;;24.50;37.80;;;;;;5099993;28;19908;-81
2021/11/26 06:46:38;;;;;;;;;;;24.50;37.80;;;;;;5117027;28;19930;-85
2021/11/26 06:49:04;;;;;;;;;;;24.50;37.80;;;;;;5117260;28;20003;-82
2021/11/26 06:51:32;;;;;;;;;;;24.50;37.80;;;;;;5099940;28;19934;-82
2021/11/26 06:53:57;;;;;;;;;;;24.50;37.80;;;;;;5117120;28;20290;-82
2021/11/26 06:56:26;;;;;;;;;;;24.50;37.80;;;;;;5100107;28;19907;-82
2021/11/26 06:58:58;;;;;;;;;;;24.50;37.80;;;;;;5100138;28;19907;-82
2021/11/26 07:01:26;;;;;;;;;;;24.50;37.80;;;;;;5116572;28;20003;-86
2021/11/26 07:03:55;;;;;;;;;;;24.50;37.80;;;;;;5099807;28;20333;-83
2021/11/26 07:06:20;;;;;;;;;;;24.50;37.70;;;;;;5116556;28;20006;-84
2021/11/26 07:08:46;;;;;;;;;;;24.60;37.80;;;;;;5099653;28;19962;-79
2021/11/26 07:11:12;;;;;;;;;;;24.50;37.80;;;;;;5099358;28;19912;-81
2021/11/26 07:13:39;;;;;;;;;;;24.50;37.80;;;;;;5099428;28;19938;-86
2021/11/26 07:16:05;;;;;;;;;;;24.60;37.80;;;;;;5116042;28;19955;-83
2021/11/26 07:18:31;;;;;;;;;;;24.50;37.80;;;;;;5100292;28;19919;-82
2021/11/26 07:20:58;;;;;;;;;;;24.50;37.80;;;;;;5116640;28;19965;-81
2021/11/26 07:23:24;;;;;;;;;;;24.50;37.80;;;;;;5117242;28;20309;-83
2021/11/26 07:25:49;;;;;;;;;;;24.50;37.80;;;;;;5122246;28;19908;-85
2021/11/26 07:28:16;;;;;;;;;;;24.50;37.90;;;;;;5106263;28;19908;-81
2021/11/26 07:30:44;;;;;;;;;;;24.50;37.90;;;;;;5105144;28;19923;-82
2021/11/26 07:33:09;;;;;;;;;;;24.50;38.10;;;;;;5124835;28;19912;-81
2021/11/26 07:35:39;;;;;;;;;;;24.60;38.40;;;;;;5102671;28;19918;-81
2021/11/26 07:38:08;;;;;;;;;;;24.60;38.40;;;;;;5125688;28;19926;-81
2021/11/26 07:40:33;;;;;;;;;;;24.70;38.50;;;;;;5118781;28;19987;-82
2021/11/26 07:43:01;;;;;;;;;;;24.70;38.60;;;;;;5099038;28;20320;-85
2021/11/26 07:45:27;;;;;;;;;;;24.70;38.70;;;;;;5098971;28;19907;-84
2021/11/26 07:47:52;;;;;;;;;;;24.70;38.90;;;;;;5115948;28;19929;-85
2021/11/26 07:50:18;;;;;;;;;;;24.70;39.00;;;;;;5098805;28;19923;-82
2021/11/26 07:52:46;;;;;;;;;;;24.70;39.00;;;;;;5098736;28;20343;-82
2021/11/26 07:55:12;;;;;;;;;;;24.70;39.20;;;;;;5115710;28;20385;-81
2021/11/26 07:57:39;;;;;;;;;;;24.80;39.20;;;;;;5099234;28;19908;-83
2021/11/26 08:00:05;;;;;;;;;;;24.80;39.30;;;;;;5115528;28;19940;-85
2021/11/26 08:02:33;;;;;;;;;;;24.80;39.40;;;;;;5099550;28;19908;-81
2021/11/26 08:04:59;;;;;;;;;;;24.80;39.40;;;;;;5099257;28;20340;-84
2021/11/26 08:07:25;;;;;;;;;;;24.80;39.50;;;;;;5121120;28;19908;-81
2021/11/26 08:09:52;;;;;;;;;;;24.80;39.10;;;;;;5125123;28;19951;-83
2021/11/26 08:12:18;;;;;;;;;;;24.80;38.80;;;;;;5121508;28;19915;-83
2021/11/26 08:14:44;;;;;;;;;;;24.80;38.50;;;;;;5115642;28;20068;-85
2021/11/26 08:17:09;;;;;;;;;;;24.80;38.50;;;;;;5115525;28;19908;-85
2021/11/26 08:19:40;;;;;;;;;;;24.80;38.50;;;;;;5116005;28;20328;-84
2021/11/26 08:22:05;;;;;;;;;;;24.80;40.80;;;;;;5115597;28;19908;-82
2021/11/26 08:24:33;;;;;;;;;;;24.20;29.30;;;;;;5115429;28;20425;-80
2021/11/26 08:26:59;;;;;;;;;;;23.40;29.80;;;;;;5098889;28;19915;-81
2021/11/26 08:29:24;;;;;;;;;;;22.50;30.10;;;;;;5116056;28;19908;-84
2021/11/26 08:31:50;;;;;;;;;;;21.70;30.90;;;;;;5098831;28;19911;-86
2021/11/26 08:34:16;;;;;;;;;;;21.30;31.90;;;;;;5116542;28;19907;-85
2021/11/26 08:36:44;;;;;;;;;;;21.30;32.10;;;;;;5099206;28;19957;-86
2021/11/26 08:39:12;;;;;;;;;;;21.10;32.10;;;;;;5099075;28;20371;-88
2021/11/26 08:41:37;;;;;;;;;;;21.10;32.10;;;;;;5116156;28;20256;-80
2021/11/26 08:44:03;;;;;;;;;;;21.10;32.50;;;;;;5115777;28;20342;-82
2021/11/26 08:46:31;;;;;;;;;;;21.40;33.70;;;;;;5115868;28;19911;-81
2021/11/26 08:48:57;;;;;;;;;;;21.80;35.10;;;;;;5115905;28;19907;-81
2021/11/26 08:51:26;;;;;;;;;;;22.10;35.70;;;;;;5115848;28;19922;-82
2021/11/26 08:53:52;;;;;;;;;;;22.50;36.40;;;;;;5115792;28;19996;-82
2021/11/26 08:56:20;;;;;;;;;;;22.90;37.50;;;;;;5115716;28;19908;-82
2021/11/26 08:58:46;;;;;;;;;;;23.20;37.10;;;;;;5099338;28;19911;-83
2021/11/26 09:01:18;;;;;;;;;;;23.50;37.60;;;;;;5099318;28;19916;-81
2021/11/26 09:03:45;;;;;;;;;;;23.70;37.30;;;;;;5098817;28;19908;-84
2021/11/26 09:06:13;;;;;;;;;;;23.90;37.50;;;;;;5115886;28;19908;-84
2021/11/26 09:08:39;;;;;;;;;;;24.00;37.20;;;;;;5115771;28;19911;-84
2021/11/26 09:11:04;;;;;;;;;;;24.20;37.20;;;;;;5098832;28;19912;-83
2021/11/26 09:13:30;;;;;;;;;;;24.30;37.30;;;;;;5098429;28;19908;-83
2021/11/26 09:16:00;;;;;;;;;;;24.40;37.30;;;;;;5115684;28;19930;-82
2021/11/26 09:18:27;;;;;;;;;;;24.50;37.20;;;;;;5099513;28;19908;-83
2021/11/26 09:20:54;;;;;;;;;;;24.60;37.10;;;;;;5118815;28;19919;-81
2021/11/26 09:23:19;;;;;;;;;;;24.70;37.20;;;;;;5103093;28;20003;-81
2021/11/26 09:25:45;;;;;;;;;;;24.70;37.30;;;;;;5104589;28;19908;-81
2021/11/26 09:28:11;;;;;;;;;;;24.70;37.30;;;;;;5121621;28;19998;-84
2021/11/26 09:30:36;;;;;;;;;;;24.80;37.40;;;;;;5101790;28;20346;-82
2021/11/26 09:33:07;;;;;;;;;;;24.80;37.40;;;;;;5099051;28;19955;-80
2021/11/26 09:35:33;;;;;;;;;;;24.90;37.70;;;;;;5098904;28;19915;-82
2021/11/26 09:37:59;;;;;;;;;;;24.90;37.70;;;;;;5115472;28;19934;-82
2021/11/26 09:40:27;;;;;;;;;;;24.90;37.50;;;;;;5101078;28;20333;-83
2021/11/26 09:42:55;;;;;;;;;;;25.00;37.50;;;;;;5102425;28;19918;-84
2021/11/26 09:45:22;;;;;;;;;;;25.00;37.50;;;;;;5101583;28;20247;-81
2021/11/26 09:47:53;;;;;;;;;;;25.00;37.60;;;;;;5118869;28;20325;-80
2021/11/26 09:50:21;;;;;;;;;;;25.00;37.60;;;;;;5118675;28;20003;-82
2021/11/26 09:52:49;;;;;;;;;;;25.00;37.60;;;;;;5120114;28;19911;-79
2021/11/26 09:55:18;;;;;;;;;;;25.00;37.60;;;;;;5101719;28;19991;-80
2021/11/26 09:57:43;;;;;;;;;;;25.10;37.70;;;;;;5118220;28;19907;-82
2021/11/26 10:00:14;;;;;;;;;;;25.10;37.70;;;;;;5118236;28;19908;-81
2021/11/26 10:02:53;;;;;;;;;;;25.10;38.30;;;;;;5118602;28;19916;-83
2021/11/26 10:05:19;;;;;;;;;;;25.10;37.70;;;;;;5118699;28;19919;-82
2021/11/26 10:07:45;;;;;;;;;;;25.10;37.60;;;;;;5118842;28;19908;-84
2021/11/26 10:10:10;;;;;;;;;;;25.10;37.40;;;;;;5118288;28;19908;-82
2021/11/26 10:12:36;;;;;;;;;;;25.20;37.60;;;;;;5101098;28;20321;-84
2021/11/26 10:15:07;;;;;;;;;;;25.20;37.70;;;;;;5101207;28;19916;-82
2021/11/26 10:17:32;;;;;;;;;;;25.20;37.80;;;;;;5118126;28;20352;-85
2021/11/26 10:19:59;;;;;;;;;;;25.20;37.80;;;;;;5100816;28;19908;-81
2021/11/26 10:22:28;;;;;;;;;;;25.10;37.70;;;;;;5117905;28;19908;-82
2021/11/26 10:25:17;;;;;;;;;;;25.20;37.70;;;;;;5118641;28;19998;-84
2021/11/26 10:27:47;;;;;;;;;;;25.20;37.70;;;;;;5101149;28;19908;-82
2021/11/26 10:30:15;;;;;;;;;;;25.20;37.80;;;;;;5100841;28;19907;-84
2021/11/26 10:32:57;;;;;;;;;;;25.20;37.80;;;;;;5117477;28;19912;-83
2021/11/26 10:35:34;;;;;;;;;;;25.20;37.80;;;;;;5117725;28;20237;-81
2021/11/26 10:38:02;;;;;;;;;;;25.20;38.10;;;;;;5100913;28;19924;-84
2021/11/26 10:40:31;;;;;;;;;;;25.30;38.10;;;;;;5118283;28;19943;-81
2021/11/26 10:42:57;;;;;;;;;;;25.30;38.00;;;;;;5100711;28;20358;-80
2021/11/26 10:45:38;;;;;;;;;;;25.30;37.80;;;;;;5117455;28;19945;-82
2021/11/26 10:59:00;;;;;;;;;;;25.30;38.10;;;;;;5117831;28;20340;-81
2021/11/26 11:01:25;;;;;;;;;;;25.30;38.00;;;;;;5118589;28;19915;-87
2021/11/26 11:04:11;;;;;;;;;;;25.30;40.80;;;;;;5118289;28;19919;-84
2021/11/26 11:06:43;;;;;;;;;;;25.30;38.10;;;;;;5101146;28;19961;-88
2021/11/26 11:09:09;;;;;;;;;;;25.30;38.00;;;;;;5117706;28;19907;-84
2021/11/26 11:11:37;;;;;;;;;;;25.20;37.90;;;;;;5117532;28;20221;-85
2021/11/26 11:14:14;;;;;;;;;;;25.20;38.00;;;;;;5100696;28;20225;-86
2021/11/26 11:16:47;;;;;;;;;;;25.20;37.90;;;;;;5117414;28;19981;-83
2021/11/26 11:19:15;;;;;;;;;;;25.20;38.20;;;;;;5117169;28;19951;-82
2021/11/26 11:21:40;;;;;;;;;;;25.10;38.20;;;;;;5100333;28;19954;-81
2021/11/26 11:24:06;;;;;;;;;;;25.10;38.30;;;;;;5100196;28;19923;-83
2021/11/26 11:26:31;;;;;;;;;;;25.10;38.90;;;;;;5116884;28;19914;-83
2021/11/26 11:28:57;;;;;;;;;;;25.10;38.30;;;;;;5099238;28;20264;-84
2021/11/26 11:31:27;;;;;;;;;;;25.20;38.80;;;;;;5116844;28;19915;-80
2021/11/26 11:33:53;;;;;;;;;;;25.20;38.30;;;;;;5116530;28;20314;-82
2021/11/26 11:36:18;;;;;;;;;;;25.20;38.30;;;;;;5099338;28;20416;-82
2021/11/26 11:38:44;;;;;;;;;;;25.10;38.30;;;;;;5099512;28;20383;-86
2021/11/26 11:41:14;;;;;;;;;;;25.10;38.10;;;;;;5116269;28;20055;-85
2021/11/26 11:43:51;;;;;;;;;;;25.20;38.00;;;;;;5100243;28;19938;-81
2021/11/26 11:46:19;;;;;;;;;;;25.10;37.90;;;;;;5099928;28;19912;-83
2021/11/26 11:48:53;;;;;;;;;;;25.10;37.80;;;;;;5100659;28;20388;-86
2021/11/26 11:51:19;;;;;;;;;;;25.10;37.70;;;;;;5117227;28;19912;-82
2021/11/26 11:53:44;;;;;;;;;;;25.10;38.00;;;;;;5116593;28;19930;-86
2021/11/26 11:56:11;;;;;;;;;;;25.10;38.20;;;;;;5100288;28;20304;-84
2021/11/26 11:58:49;;;;;;;;;;;25.10;38.20;;;;;;5099676;28;19908;-88
2021/11/26 12:01:19;;;;;;;;;;;25.10;38.30;;;;;;5116655;28;19947;-87
2021/11/26 12:03:47;;;;;;;;;;;25.20;38.40;;;;;;5099874;28;20281;-88
2021/11/26 12:06:13;;;;;;;;;;;25.20;38.40;;;;;;5100026;28;20333;-87
2021/11/26 12:08:57;;;;;;;;;;;25.20;38.50;;;;;;5099604;28;19912;-86
2021/11/26 12:11:23;;;;;;;;;;;25.20;38.60;;;;;;5099674;28;19912;-81
2021/11/26 12:13:57;;;;;;;;;;;25.20;38.70;;;;;;5116166;28;19957;-85
2021/11/26 12:16:24;;;;;;;;;;;25.20;38.60;;;;;;5101261;28;19908;-84
2021/11/26 12:18:53;;;;;;;;;;;25.20;38.70;;;;;;5117296;28;19907;-83
2021/11/26 12:21:21;;;;;;;;;;;25.30;38.80;;;;;;5102027;28;19931;-85
2021/11/26 12:24:09;;;;;;;;;;;25.30;38.80;;;;;;5100883;28;20205;-81
2021/11/26 12:26:46;;;;;;;;;;;25.30;38.80;;;;;;5099933;28;19907;-84
2021/11/26 12:29:12;;;;;;;;;;;25.30;38.80;;;;;;5099687;28;19998;-84
2021/11/26 12:31:40;;;;;;;;;;;25.30;38.80;;;;;;5098983;28;19962;-83
2021/11/26 12:34:07;;;;;;;;;;;25.30;38.80;;;;;;5099514;28;19908;-81
2021/11/26 12:36:35;;;;;;;;;;;25.30;38.80;;;;;;5098773;28;19907;-85
2021/11/26 12:39:05;;;;;;;;;;;25.30;38.80;;;;;;5116548;28;19965;-83
2021/11/26 12:41:33;;;;;;;;;;;25.30;38.80;;;;;;5099193;28;19907;-84
2021/11/26 12:43:59;;;;;;;;;;;25.20;38.90;;;;;;5098857;28;20555;-85
2021/11/26 12:46:24;;;;;;;;;;;25.20;38.80;;;;;;5115532;28;19907;-82
2021/11/26 12:49:29;;;;;;;;;;;25.20;38.70;;;;;;5115549;28;19908;-83
2021/11/26 12:51:56;;;;;;;;;;;25.20;39.00;;;;;;5116338;28;20072;-83
2021/11/26 12:54:32;;;;;;;;;;;25.20;39.00;;;;;;5098767;28;20249;-85
2021/11/26 12:56:59;;;;;;;;;;;25.20;39.00;;;;;;5115595;28;20344;-84
2021/11/26 12:59:25;;;;;;;;;;;25.20;38.70;;;;;;5098648;28;19907;-80
2021/11/26 13:01:51;;;;;;;;;;;25.20;39.00;;;;;;5098276;28;19962;-80
2021/11/26 13:04:17;;;;;;;;;;;25.30;39.10;;;;;;5115586;28;19965;-85
2021/11/26 13:06:42;;;;;;;;;;;25.20;39.10;;;;;;5116884;28;19918;-81
2021/11/26 13:09:10;;;;;;;;;;;25.10;39.10;;;;;;5098416;28;19907;-81
2021/11/26 13:11:42;;;;;;;;;;;23.60;29.00;;;;;;5098390;28;19912;-87
2021/11/26 13:14:08;;;;;;;;;;;21.80;30.50;;;;;;5099958;28;19907;-85
2021/11/26 13:16:34;;;;;;;;;;;22.10;35.20;;;;;;5102446;28;19907;-82
2021/11/26 13:19:04;;;;;;;;;;;22.80;35.30;;;;;;5119051;28;19908;-79
2021/11/26 13:21:30;;;;;;;;;;;23.40;34.90;;;;;;5119006;28;19915;-77
2021/11/26 13:23:55;;;;;;;;;;;23.90;34.50;;;;;;5101610;28;19933;-79
2021/11/26 13:26:21;;;;;;;;;;;24.40;34.20;;;;;;5119271;28;19907;-82
2021/11/26 13:28:48;;;;;;;;;;;24.70;33.70;;;;;;5101594;28;20380;-79
2021/11/26 13:31:14;;;;;;;;;;;25.00;33.10;;;;;;5119510;28;19922;-87
2021/11/26 13:33:43;;;;;;;;;;;25.20;33.50;;;;;;5102265;28;19965;-78
2021/11/26 13:36:12;;;;;;;;;;;25.40;32.80;;;;;;5118912;28;19918;-78
2021/11/26 13:38:40;;;;;;;;;;;25.50;32.60;;;;;;5119066;28;19920;-78
2021/11/26 13:41:22;;;;;;;;;;;25.60;32.30;;;;;;5118791;28;19935;-78
2021/11/26 13:44:07;;;;;;;;;;;25.70;32.20;;;;;;5119471;28;19969;-80
2021/11/26 13:46:32;;;;;;;;;;;25.80;32.10;;;;;;5101520;28;19908;-87
2021/11/26 13:48:59;;;;;;;;;;;25.90;32.30;;;;;;5118722;28;19908;-77
2021/11/26 13:51:27;;;;;;;;;;;25.90;32.20;;;;;;5101771;28;20018;-78
2021/11/26 13:53:54;;;;;;;;;;;26.00;32.20;;;;;;5118528;28;19908;-81
2021/11/26 13:56:25;;;;;;;;;;;26.00;32.30;;;;;;5102277;28;19912;-81
2021/11/26 13:58:58;;;;;;;;;;;26.00;32.20;;;;;;5118234;28;19907;-79
2021/11/26 14:01:31;;;;;;;;;;;26.10;32.30;;;;;;5101317;28;19908;-80
2021/11/26 14:03:57;;;;;;;;;;;26.10;32.30;;;;;;5119467;28;20384;-79
2021/11/26 14:06:25;;;;;;;;;;;26.20;32.40;;;;;;5118786;28;20230;-79
2021/11/26 14:08:52;;;;;;;;;;;26.20;32.40;;;;;;5101433;28;19915;-82
2021/11/26 14:11:27;;;;;;;;;;;26.30;32.50;;;;;;5100476;28;19919;-79
2021/11/26 14:13:55;;;;;;;;;;;26.30;32.50;;;;;;5117921;28;20014;-78
2021/11/26 14:16:22;;;;;;;;;;;26.30;32.50;;;;;;5117798;28;19994;-79
2021/11/26 14:18:51;;;;;;;;;;;26.30;32.60;;;;;;5117727;28;19977;-80
2021/11/26 14:21:17;;;;;;;;;;;26.40;32.80;;;;;;5100542;28;19916;-81
2021/11/26 14:24:03;;;;;;;;;;;26.40;32.80;;;;;;5117683;28;19991;-80
2021/11/26 14:26:29;;;;;;;;;;;26.40;32.80;;;;;;5101154;28;19911;-84
2021/11/26 14:29:07;;;;;;;;;;;26.50;33.00;;;;;;5100542;28;19908;-79
2021/11/26 14:31:32;;;;;;;;;;;26.50;33.10;;;;;;5118758;28;20668;-83